Time;durP1;ratioP1;P1;durP2;ratioP2;P2;SDS_P1;SDS_P2;PMS_P1;PMS_P2;Temp;Humidity;BMP_temperature;BMP_pressure;BME280_temperature;BME280_humidity;BME280_pressure;Samples;Min_cycle;Max_cycle;Signal;HPM_P1;HPM_P2
2021/12/27 00:00:45;;;;;;;2.55;1.13;;;;;;;;;;5045812;28;20021;-71
2021/12/27 00:03:11;;;;;;;2.08;1.08;;;;;;;;;;5062976;28;20029;-71
2021/12/27 00:05:36;;;;;;;2.17;0.82;;;;;;;;;;5062863;28;20017;-71
2021/12/27 00:08:02;;;;;;;1.00;0.77;;;;;;;;;;5063362;28;20210;-71
2021/12/27 00:10:28;;;;;;;2.45;0.90;;;;;;;;;;5062941;28;20030;-71
2021/12/27 00:12:54;;;;;;;1.45;1.00;;;;;;;;;;5063008;28;20021;-71
2021/12/27 00:15:20;;;;;;;1.73;0.82;;;;;;;;;;5062921;28;20040;-71
2021/12/27 00:17:47;;;;;;;1.73;0.70;;;;;;;;;;5060719;28;20013;-71
2021/12/27 00:20:14;;;;;;;3.00;1.33;;;;;;;;;;5059911;28;20014;-71
2021/12/27 00:22:40;;;;;;;0.77;0.73;;;;;;;;;;5059713;28;20039;-71
2021/12/27 00:25:07;;;;;;;2.28;1.00;;;;;;;;;;5060078;28;20028;-72
2021/12/27 00:27:33;;;;;;;0.73;0.70;;;;;;;;;;5059525;28;20076;-71
2021/12/27 00:29:58;;;;;;;3.60;0.68;;;;;;;;;;5060005;28;20040;-71
2021/12/27 00:32:24;;;;;;;0.93;0.70;;;;;;;;;;5059384;28;20089;-71
2021/12/27 00:34:49;;;;;;;0.82;0.60;;;;;;;;;;5059966;28;20059;-71
2021/12/27 00:37:15;;;;;;;0.90;0.65;;;;;;;;;;5042495;28;20013;-70
2021/12/27 00:39:40;;;;;;;2.28;0.90;;;;;;;;;;5059842;28;20010;-71
2021/12/27 00:42:06;;;;;;;1.02;0.60;;;;;;;;;;5059579;28;20033;-70
2021/12/27 00:44:32;;;;;;;1.58;0.90;;;;;;;;;;5042000;28;20017;-71
2021/12/27 00:46:58;;;;;;;4.22;0.75;;;;;;;;;;5059637;28;20022;-71
2021/12/27 00:49:24;;;;;;;4.28;1.33;;;;;;;;;;5059498;28;20047;-71
2021/12/27 00:51:49;;;;;;;1.38;0.88;;;;;;;;;;5059561;28;20028;-72
2021/12/27 00:54:15;;;;;;;1.30;0.80;;;;;;;;;;5059557;28;20024;-71
2021/12/27 00:56:41;;;;;;;1.85;0.90;;;;;;;;;;5059064;28;20020;-71
2021/12/27 00:59:06;;;;;;;1.20;0.70;;;;;;;;;;5059343;28;20017;-71
2021/12/27 01:01:31;;;;;;;1.40;0.80;;;;;;;;;;5058731;28;20006;-71
2021/12/27 01:03:59;;;;;;;3.40;1.00;;;;;;;;;;5041814;28;20028;-71
2021/12/27 01:06:25;;;;;;;1.05;0.85;;;;;;;;;;5041424;28;20014;-71
2021/12/27 01:08:52;;;;;;;1.95;0.55;;;;;;;;;;5058332;28;20021;-71
2021/12/27 01:11:27;;;;;;;3.25;0.82;;;;;;;;;;5041743;28;20013;-71
2021/12/27 01:16:27;;;;;;;1.42;0.93;;;;;;;;;;5058612;28;20073;-71
2021/12/27 01:18:52;;;;;;;2.00;0.88;;;;;;;;;;5059030;28;20231;-72
2021/12/27 01:21:21;;;;;;;3.45;0.82;;;;;;;;;;5058695;28;20080;-71
2021/12/27 01:23:49;;;;;;;0.70;0.63;;;;;;;;;;5041484;28;20021;-71
2021/12/27 01:26:14;;;;;;;1.27;0.70;;;;;;;;;;5058594;28;20013;-71
2021/12/27 01:28:40;;;;;;;2.17;0.85;;;;;;;;;;5058345;28;20016;-71
2021/12/27 01:31:06;;;;;;;2.10;1.02;;;;;;;;;;5041493;28;20123;-71
2021/12/27 01:33:32;;;;;;;0.55;0.50;;;;;;;;;;5058669;28;20056;-71
2021/12/27 01:35:59;;;;;;;1.05;0.75;;;;;;;;;;5058390;28;20025;-71
2021/12/27 01:38:24;;;;;;;0.77;0.60;;;;;;;;;;5058370;28;20009;-71
2021/12/27 01:40:53;;;;;;;1.00;0.70;;;;;;;;;;5058640;28;20052;-71
2021/12/27 01:43:30;;;;;;;0.98;0.65;;;;;;;;;;5058173;28;20067;-71
2021/12/27 01:45:59;;;;;;;4.82;1.10;;;;;;;;;;5058348;28;20029;-71
2021/12/27 01:48:29;;;;;;;1.10;0.75;;;;;;;;;;5058352;28;20017;-71
2021/12/27 01:50:57;;;;;;;1.17;0.77;;;;;;;;;;5058174;28;20010;-72
2021/12/27 01:53:25;;;;;;;1.35;0.80;;;;;;;;;;5041170;28;20027;-71
2021/12/27 01:55:52;;;;;;;1.25;0.80;;;;;;;;;;5058116;28;20036;-71
2021/12/27 01:58:18;;;;;;;2.03;0.85;;;;;;;;;;5058146;28;20029;-72
2021/12/27 02:00:47;;;;;;;1.50;0.70;;;;;;;;;;5040742;28;20032;-71
2021/12/27 02:03:17;;;;;;;1.25;0.98;;;;;;;;;;5057029;28;20021;-72
2021/12/27 02:05:44;;;;;;;2.13;0.65;;;;;;;;;;5040959;28;20002;-71
2021/12/27 02:08:10;;;;;;;1.60;0.80;;;;;;;;;;5057373;28;20101;-71
2021/12/27 02:10:35;;;;;;;1.73;0.90;;;;;;;;;;5058057;28;20013;-71
2021/12/27 02:13:01;;;;;;;0.95;0.73;;;;;;;;;;5058057;28;20052;-72
2021/12/27 02:15:27;;;;;;;1.90;1.15;;;;;;;;;;5040742;28;20036;-71
2021/12/27 02:17:53;;;;;;;1.83;0.80;;;;;;;;;;5057673;28;20013;-71
2021/12/27 02:20:22;;;;;;;1.88;0.88;;;;;;;;;;5057476;28;20009;-72
2021/12/27 02:22:49;;;;;;;3.10;1.10;;;;;;;;;;5057644;28;20013;-71
2021/12/27 02:25:15;;;;;;;1.50;1.00;;;;;;;;;;5057740;28;20014;-71
2021/12/27 02:27:43;;;;;;;2.47;1.02;;;;;;;;;;5057733;28;20018;-71
2021/12/27 02:30:11;;;;;;;1.33;0.70;;;;;;;;;;5057694;28;20017;-72
2021/12/27 02:32:57;;;;;;;1.02;0.70;;;;;;;;;;5057304;28;20033;-72
2021/12/27 02:35:29;;;;;;;1.52;0.85;;;;;;;;;;5040387;28;20013;-72
2021/12/27 02:37:56;;;;;;;0.68;0.60;;;;;;;;;;5057554;28;20065;-71
2021/12/27 02:40:24;;;;;;;1.65;0.80;;;;;;;;;;5056510;28;20017;-71
2021/12/27 02:42:58;;;;;;;2.00;0.88;;;;;;;;;;5040062;28;20017;-71
2021/12/27 02:45:25;;;;;;;1.48;0.70;;;;;;;;;;5057217;28;20077;-71
2021/12/27 02:47:50;;;;;;;3.25;0.70;;;;;;;;;;5040390;28;20021;-71
2021/12/27 02:50:16;;;;;;;0.75;0.50;;;;;;;;;;5057524;28;20044;-71
2021/12/27 02:52:42;;;;;;;1.08;0.68;;;;;;;;;;5057151;28;20044;-71
2021/12/27 02:55:07;;;;;;;0.95;0.80;;;;;;;;;;5056683;28;20009;-71
2021/12/27 02:57:33;;;;;;;1.55;0.80;;;;;;;;;;5057406;28;20009;-71
2021/12/27 03:00:00;;;;;;;0.80;0.60;;;;;;;;;;5057042;28;20021;-71
2021/12/27 03:02:26;;;;;;;1.88;0.80;;;;;;;;;;5040016;28;20041;-71
2021/12/27 03:04:51;;;;;;;1.02;0.90;;;;;;;;;;5056632;28;20025;-72
2021/12/27 03:07:16;;;;;;;1.88;0.93;;;;;;;;;;5056548;28;20024;-71
2021/12/27 03:09:42;;;;;;;1.95;1.02;;;;;;;;;;5040161;28;20020;-71
2021/12/27 03:12:12;;;;;;;0.70;0.52;;;;;;;;;;5056996;28;20169;-71
2021/12/27 03:14:37;;;;;;;1.17;0.88;;;;;;;;;;5056774;28;20009;-71
2021/12/27 03:17:03;;;;;;;1.48;0.55;;;;;;;;;;5039874;28;20020;-71
2021/12/27 03:19:29;;;;;;;1.23;0.80;;;;;;;;;;5039797;28;20017;-72
2021/12/27 03:21:54;;;;;;;2.35;0.88;;;;;;;;;;5056881;28;20187;-72
2021/12/27 03:24:19;;;;;;;1.17;0.82;;;;;;;;;;5056801;28;20081;-72
2021/12/27 03:26:45;;;;;;;0.50;0.50;;;;;;;;;;5039744;28;20020;-71
2021/12/27 03:29:11;;;;;;;1.15;0.75;;;;;;;;;;5039573;28;20010;-72
2021/12/27 03:31:37;;;;;;;0.85;0.70;;;;;;;;;;5056508;28;20013;-71
2021/12/27 03:34:04;;;;;;;2.17;1.02;;;;;;;;;;5056880;28;20056;-71
2021/12/27 03:36:36;;;;;;;1.08;0.60;;;;;;;;;;5039755;28;20005;-71
2021/12/27 03:39:04;;;;;;;1.20;0.93;;;;;;;;;;5056912;28;20025;-72
2021/12/27 03:41:30;;;;;;;0.90;0.75;;;;;;;;;;5056890;28;20069;-71
2021/12/27 03:43:55;;;;;;;1.00;0.70;;;;;;;;;;5056886;28;20262;-71
2021/12/27 03:46:20;;;;;;;1.10;0.70;;;;;;;;;;5056790;28;20021;-72
2021/12/27 03:48:46;;;;;;;4.18;0.73;;;;;;;;;;5056642;28;20017;-71
2021/12/27 03:51:11;;;;;;;0.68;0.57;;;;;;;;;;5056904;28;20009;-71
2021/12/27 03:53:37;;;;;;;1.77;0.80;;;;;;;;;;5060208;28;20010;-71
2021/12/27 03:56:03;;;;;;;1.20;0.68;;;;;;;;;;5060509;28;20013;-71
2021/12/27 03:58:33;;;;;;;1.00;0.95;;;;;;;;;;5060423;28;20029;-71
2021/12/27 04:01:14;;;;;;;1.40;0.82;;;;;;;;;;5042542;28;20014;-71
2021/12/27 04:03:39;;;;;;;2.72;0.80;;;;;;;;;;5042663;28;20024;-72
2021/12/27 04:06:04;;;;;;;1.08;0.77;;;;;;;;;;5060338;28;20009;-71
2021/12/27 04:08:30;;;;;;;1.15;0.80;;;;;;;;;;5060219;28;20028;-71
2021/12/27 04:10:55;;;;;;;2.78;1.10;;;;;;;;;;5042786;28;20033;-71
2021/12/27 04:13:21;;;;;;;1.77;0.82;;;;;;;;;;5060238;28;20021;-71
2021/12/27 04:15:49;;;;;;;1.08;0.70;;;;;;;;;;5042858;28;20092;-71
2021/12/27 04:18:14;;;;;;;3.08;1.10;;;;;;;;;;5043044;28;20036;-71
2021/12/27 04:20:40;;;;;;;1.40;0.85;;;;;;;;;;5042929;28;20013;-71
2021/12/27 04:23:06;;;;;;;0.85;0.80;;;;;;;;;;5042855;28;20086;-71
2021/12/27 04:25:32;;;;;;;1.73;0.88;;;;;;;;;;5059801;28;20017;-71
2021/12/27 04:27:57;;;;;;;1.02;0.70;;;;;;;;;;5042687;28;20077;-71
2021/12/27 04:30:23;;;;;;;1.35;0.88;;;;;;;;;;5059661;28;20028;-71
2021/12/27 04:32:49;;;;;;;2.78;1.25;;;;;;;;;;5059785;28;20049;-71
2021/12/27 04:35:16;;;;;;;1.83;1.00;;;;;;;;;;5059754;28;20009;-71
2021/12/27 04:37:42;;;;;;;0.68;0.63;;;;;;;;;;5059672;28;20025;-71
2021/12/27 04:40:10;;;;;;;1.50;0.60;;;;;;;;;;5059672;28;20020;-71
2021/12/27 04:42:37;;;;;;;1.35;1.10;;;;;;;;;;5042563;28;20013;-71
2021/12/27 04:45:04;;;;;;;1.45;0.75;;;;;;;;;;5059467;28;20044;-71
2021/12/27 04:47:29;;;;;;;1.35;1.00;;;;;;;;;;5059412;28;20033;-71
2021/12/27 04:49:55;;;;;;;2.25;1.00;;;;;;;;;;5042507;28;20009;-71
2021/12/27 04:52:20;;;;;;;1.42;1.08;;;;;;;;;;5059486;28;20040;-70
2021/12/27 04:54:46;;;;;;;0.65;0.65;;;;;;;;;;5059368;28;20014;-71
2021/12/27 04:57:11;;;;;;;1.10;0.77;;;;;;;;;;5042100;28;20013;-71
2021/12/27 04:59:36;;;;;;;1.95;1.08;;;;;;;;;;5059176;28;20005;-71
2021/12/27 05:02:02;;;;;;;1.20;0.80;;;;;;;;;;5059342;28;20036;-70
2021/12/27 05:04:27;;;;;;;1.58;0.68;;;;;;;;;;5058435;28;20108;-71
2021/12/27 05:06:53;;;;;;;1.60;1.05;;;;;;;;;;5041977;28;20084;-70
2021/12/27 05:09:18;;;;;;;2.38;1.20;;;;;;;;;;5042108;28;20002;-71
2021/12/27 05:11:44;;;;;;;1.98;1.38;;;;;;;;;;5041720;28;20076;-71
2021/12/27 05:14:09;;;;;;;1.45;1.05;;;;;;;;;;5058906;28;20040;-71
2021/12/27 05:16:35;;;;;;;1.77;0.80;;;;;;;;;;5041891;28;20006;-71
2021/12/27 05:19:00;;;;;;;1.60;1.05;;;;;;;;;;5059037;28;20044;-71
2021/12/27 05:21:25;;;;;;;1.75;1.00;;;;;;;;;;5041849;28;20010;-71
2021/12/27 05:23:51;;;;;;;1.58;0.98;;;;;;;;;;5041429;28;20045;-71
2021/12/27 05:26:17;;;;;;;2.20;1.08;;;;;;;;;;5041727;28;20006;-71
2021/12/27 05:28:43;;;;;;;0.95;0.75;;;;;;;;;;5058936;28;20005;-71
2021/12/27 05:31:09;;;;;;;0.95;0.80;;;;;;;;;;5058827;28;20009;-71
2021/12/27 05:33:34;;;;;;;6.95;1.50;;;;;;;;;;5058550;28;20036;-70
2021/12/27 05:36:00;;;;;;;1.25;0.93;;;;;;;;;;5058738;28;20009;-71
2021/12/27 05:38:25;;;;;;;2.47;1.15;;;;;;;;;;5058708;28;20025;-71
2021/12/27 05:40:52;;;;;;;2.67;1.52;;;;;;;;;;5058621;28;20001;-71
2021/12/27 05:43:18;;;;;;;2.00;1.20;;;;;;;;;;5058240;28;20021;-70
2021/12/27 05:45:44;;;;;;;2.72;1.17;;;;;;;;;;5058522;28;20024;-71
2021/12/27 05:48:09;;;;;;;2.40;1.23;;;;;;;;;;5058023;28;20069;-70
2021/12/27 05:50:34;;;;;;;3.08;0.80;;;;;;;;;;5040960;28;20048;-71
2021/12/27 05:53:01;;;;;;;2.42;1.83;;;;;;;;;;5058312;28;20010;-71
2021/12/27 05:55:28;;;;;;;1.90;1.13;;;;;;;;;;5040783;28;20009;-70
2021/12/27 05:57:53;;;;;;;3.13;1.17;;;;;;;;;;5058410;28;20010;-70
2021/12/27 06:00:19;;;;;;;1.13;0.80;;;;;;;;;;5058110;28;20035;-71
2021/12/27 06:02:45;;;;;;;2.33;1.20;;;;;;;;;;5058201;28;20024;-71
2021/12/27 06:05:11;;;;;;;1.15;0.80;;;;;;;;;;5040593;28;20029;-70
2021/12/27 06:07:38;;;;;;;1.75;1.10;;;;;;;;;;5058179;28;20017;-70
2021/12/27 06:10:04;;;;;;;2.60;1.38;;;;;;;;;;5058172;28;20016;-71
2021/12/27 06:12:30;;;;;;;1.88;1.20;;;;;;;;;;5057921;28;20013;-71
2021/12/27 06:14:55;;;;;;;1.80;1.30;;;;;;;;;;5040621;28;20010;-71
2021/12/27 06:17:20;;;;;;;5.53;1.40;;;;;;;;;;5057699;28;20013;-71
2021/12/27 06:19:46;;;;;;;3.55;1.80;;;;;;;;;;5057818;28;20013;-71
2021/12/27 06:22:11;;;;;;;2.58;1.52;;;;;;;;;;5057923;28;20031;-71
2021/12/27 06:24:40;;;;;;;3.25;1.33;;;;;;;;;;5057322;28;20039;-71
2021/12/27 06:27:05;;;;;;;2.60;1.35;;;;;;;;;;5057666;28;20021;-71
2021/12/27 06:29:30;;;;;;;3.45;2.10;;;;;;;;;;5057586;28;20009;-71
2021/12/27 06:31:56;;;;;;;1.80;0.93;;;;;;;;;;5057175;28;20030;-71
2021/12/27 06:34:21;;;;;;;1.13;0.75;;;;;;;;;;5057346;28;20016;-71
2021/12/27 06:36:46;;;;;;;2.03;1.08;;;;;;;;;;5040375;28;20040;-70
2021/12/27 06:39:12;;;;;;;2.20;1.10;;;;;;;;;;5057348;28;20024;-71
2021/12/27 06:41:37;;;;;;;1.58;1.10;;;;;;;;;;5057282;28;20216;-70
2021/12/27 06:44:03;;;;;;;1.60;1.00;;;;;;;;;;5057268;28;20013;-71
2021/12/27 06:46:29;;;;;;;1.98;0.90;;;;;;;;;;5057457;28;20018;-70
2021/12/27 06:48:54;;;;;;;2.85;1.20;;;;;;;;;;5040315;28;20017;-71
2021/12/27 06:51:20;;;;;;;2.15;1.08;;;;;;;;;;5057327;28;20013;-70
2021/12/27 06:53:45;;;;;;;1.67;1.00;;;;;;;;;;5039658;28;20033;-70
2021/12/27 06:56:11;;;;;;;1.52;0.95;;;;;;;;;;5057110;28;20017;-70
2021/12/27 06:58:36;;;;;;;3.20;1.25;;;;;;;;;;5057378;28;20033;-71
2021/12/27 07:01:03;;;;;;;4.57;1.23;;;;;;;;;;5039818;28;20050;-71
2021/12/27 07:03:28;;;;;;;3.40;1.20;;;;;;;;;;5056738;28;20025;-70
2021/12/27 07:05:53;;;;;;;1.98;1.10;;;;;;;;;;5039864;28;20006;-70
2021/12/27 07:08:19;;;;;;;1.67;1.15;;;;;;;;;;5056958;28;20005;-70
2021/12/27 07:10:45;;;;;;;2.88;1.23;;;;;;;;;;5057011;28;20009;-70
2021/12/27 07:13:10;;;;;;;3.10;1.40;;;;;;;;;;5057378;28;20006;-70
2021/12/27 07:15:41;;;;;;;3.00;1.27;;;;;;;;;;5040061;28;20005;-71
2021/12/27 07:18:20;;;;;;;2.05;1.30;;;;;;;;;;5039883;28;20009;-71
2021/12/27 07:20:46;;;;;;;8.00;1.42;;;;;;;;;;5039833;28;20045;-70
2021/12/27 07:23:12;;;;;;;4.35;1.08;;;;;;;;;;5039815;28;20002;-70
2021/12/27 07:25:37;;;;;;;5.35;1.10;;;;;;;;;;5056911;28;20005;-71
2021/12/27 07:28:03;;;;;;;1.58;1.33;;;;;;;;;;5043403;28;20036;-71
2021/12/27 07:30:29;;;;;;;2.10;1.20;;;;;;;;;;5060999;28;20052;-71
2021/12/27 07:32:55;;;;;;;1.15;0.85;;;;;;;;;;5060347;28;20022;-70
2021/12/27 07:35:20;;;;;;;2.83;1.45;;;;;;;;;;5060757;28;20077;-70
2021/12/27 07:37:46;;;;;;;5.70;1.25;;;;;;;;;;5060727;28;20018;-70
2021/12/27 07:40:11;;;;;;;1.20;0.63;;;;;;;;;;5061002;28;20084;-71
2021/12/27 07:42:37;;;;;;;2.72;0.90;;;;;;;;;;5043574;28;20006;-71
2021/12/27 07:45:04;;;;;;;1.92;1.10;;;;;;;;;;5043489;28;20025;-71
2021/12/27 07:47:29;;;;;;;1.35;0.90;;;;;;;;;;5060689;28;20021;-71
2021/12/27 07:49:55;;;;;;;3.10;0.88;;;;;;;;;;5060535;28;20041;-71
2021/12/27 07:52:20;;;;;;;4.65;1.40;;;;;;;;;;5060586;28;20021;-71
2021/12/27 07:54:45;;;;;;;2.75;1.10;;;;;;;;;;5060437;28;20005;-71
2021/12/27 07:57:11;;;;;;;0.77;0.77;;;;;;;;;;5060286;28;20028;-71
2021/12/27 07:59:37;;;;;;;3.80;0.70;;;;;;;;;;5060308;28;20069;-71
2021/12/27 08:02:03;;;;;;;0.80;0.70;;;;;;;;;;5060328;28;20016;-71
2021/12/27 08:04:28;;;;;;;2.10;1.00;;;;;;;;;;5060235;28;20077;-71
2021/12/27 08:06:54;;;;;;;2.10;1.00;;;;;;;;;;5060394;28;20006;-71
2021/12/27 08:09:19;;;;;;;1.85;1.40;;;;;;;;;;5060096;28;20013;-72
2021/12/27 08:11:44;;;;;;;1.27;0.70;;;;;;;;;;5060333;28;20020;-72
2021/12/27 08:14:10;;;;;;;2.42;1.10;;;;;;;;;;5042594;28;20005;-71
2021/12/27 08:16:35;;;;;;;5.53;1.05;;;;;;;;;;5042164;28;19998;-71
2021/12/27 08:19:01;;;;;;;1.20;0.73;;;;;;;;;;5059645;28;20013;-72
2021/12/27 08:21:29;;;;;;;1.98;1.15;;;;;;;;;;5059576;28;20028;-71
2021/12/27 08:23:54;;;;;;;1.15;0.93;;;;;;;;;;5059645;28;20016;-71
2021/12/27 08:26:20;;;;;;;3.05;1.45;;;;;;;;;;5042392;28;20033;-71
2021/12/27 08:28:49;;;;;;;1.23;0.93;;;;;;;;;;5059926;28;20029;-71
2021/12/27 08:31:14;;;;;;;2.55;1.30;;;;;;;;;;5059689;28;20016;-71
2021/12/27 08:33:39;;;;;;;4.07;1.00;;;;;;;;;;5059676;28;20037;-72
2021/12/27 08:36:05;;;;;;;1.50;1.05;;;;;;;;;;5059538;28;20014;-71
2021/12/27 08:38:31;;;;;;;2.13;1.10;;;;;;;;;;5058385;28;20021;-71
2021/12/27 08:40:56;;;;;;;1.75;0.88;;;;;;;;;;5059909;28;20016;-72
2021/12/27 08:43:22;;;;;;;1.88;1.30;;;;;;;;;;5042896;28;20017;-71
2021/12/27 08:45:47;;;;;;;2.65;1.15;;;;;;;;;;5042618;28;20025;-72
2021/12/27 08:48:13;;;;;;;3.85;1.52;;;;;;;;;;5042725;28;20017;-72
2021/12/27 08:50:39;;;;;;;1.63;1.10;;;;;;;;;;5059491;28;20032;-71
2021/12/27 08:53:05;;;;;;;2.13;0.85;;;;;;;;;;5059688;28;20231;-71
2021/12/27 08:55:35;;;;;;;1.27;0.88;;;;;;;;;;5059509;28;20009;-71
2021/12/27 08:58:01;;;;;;;6.28;1.30;;;;;;;;;;5058800;28;20022;-71
2021/12/27 09:00:27;;;;;;;1.90;0.98;;;;;;;;;;5058646;28;20005;-71
2021/12/27 09:02:52;;;;;;;1.27;1.15;;;;;;;;;;5042389;28;20055;-72
2021/12/27 09:05:18;;;;;;;2.40;1.17;;;;;;;;;;5041780;28;20021;-71
2021/12/27 09:07:43;;;;;;;2.58;1.38;;;;;;;;;;5059371;28;20021;-72
2021/12/27 09:10:09;;;;;;;1.83;0.77;;;;;;;;;;5059052;28;20025;-71
2021/12/27 09:12:35;;;;;;;7.38;1.50;;;;;;;;;;5058961;28;20041;-72
2021/12/27 09:15:00;;;;;;;1.63;1.25;;;;;;;;;;5058864;28;20030;-71
2021/12/27 09:17:26;;;;;;;4.32;1.60;;;;;;;;;;5058672;28;20013;-71
2021/12/27 09:19:51;;;;;;;2.33;1.20;;;;;;;;;;5059012;28;20021;-71
2021/12/27 09:22:18;;;;;;;2.30;0.95;;;;;;;;;;5058709;28;20024;-72
2021/12/27 09:24:44;;;;;;;1.42;1.00;;;;;;;;;;5058416;28;20025;-71
2021/12/27 09:27:10;;;;;;;1.98;1.20;;;;;;;;;;5059135;28;20072;-71
2021/12/27 09:29:36;;;;;;;3.15;1.25;;;;;;;;;;5058865;28;20009;-72
2021/12/27 09:32:03;;;;;;;1.92;0.93;;;;;;;;;;5041513;28;20021;-71
2021/12/27 09:34:28;;;;;;;2.10;0.95;;;;;;;;;;5041442;28;20056;-71
2021/12/27 09:36:54;;;;;;;3.85;1.65;;;;;;;;;;5041833;28;20010;-71
2021/12/27 09:39:19;;;;;;;3.05;1.27;;;;;;;;;;5058531;28;20024;-71
2021/12/27 09:41:51;;;;;;;2.55;1.10;;;;;;;;;;5058448;28;20017;-72
2021/12/27 09:44:16;;;;;;;1.95;0.98;;;;;;;;;;5057906;28;20017;-71
2021/12/27 09:46:42;;;;;;;2.22;1.10;;;;;;;;;;5058922;28;20066;-72
2021/12/27 09:49:11;;;;;;;3.08;1.10;;;;;;;;;;5058358;28;20024;-71
2021/12/27 09:51:40;;;;;;;2.50;1.30;;;;;;;;;;5041493;28;20033;-71
2021/12/27 09:54:07;;;;;;;1.67;0.88;;;;;;;;;;5041282;28;20052;-71
2021/12/27 09:56:33;;;;;;;2.38;1.20;;;;;;;;;;5058223;28;20175;-71
2021/12/27 09:58:58;;;;;;;2.97;1.65;;;;;;;;;;5040969;28;20032;-71
2021/12/27 10:01:24;;;;;;;3.17;1.38;;;;;;;;;;5058512;28;20017;-72
2021/12/27 10:03:54;;;;;;;2.85;1.30;;;;;;;;;;5058035;28;20028;-72
2021/12/27 10:06:22;;;;;;;1.58;0.93;;;;;;;;;;5058101;28;20021;-72
2021/12/27 10:08:51;;;;;;;1.42;1.00;;;;;;;;;;5058516;28;20081;-73
2021/12/27 10:11:17;;;;;;;1.52;0.93;;;;;;;;;;5058093;28;20012;-73
2021/12/27 10:14:00;;;;;;;1.42;0.88;;;;;;;;;;5058028;28;20028;-72
2021/12/27 10:16:26;;;;;;;2.42;1.50;;;;;;;;;;5040685;28;20020;-72
2021/12/27 10:18:54;;;;;;;3.08;1.17;;;;;;;;;;5058190;28;20017;-73
2021/12/27 10:21:20;;;;;;;3.13;1.52;;;;;;;;;;5057923;28;20009;-73
2021/12/27 10:23:45;;;;;;;3.28;1.40;;;;;;;;;;5040504;28;20048;-73
2021/12/27 10:26:16;;;;;;;2.22;1.10;;;;;;;;;;5057734;28;20243;-73
2021/12/27 10:28:42;;;;;;;4.30;1.80;;;;;;;;;;5057816;28;20024;-73
2021/12/27 10:31:07;;;;;;;4.38;1.70;;;;;;;;;;5057590;28;20065;-74
2021/12/27 10:33:33;;;;;;;3.65;1.35;;;;;;;;;;5056534;28;20089;-73
2021/12/27 10:35:59;;;;;;;3.78;1.35;;;;;;;;;;5040308;28;20017;-73
2021/12/27 10:38:31;;;;;;;3.92;1.60;;;;;;;;;;5040158;28;20020;-73
2021/12/27 10:41:08;;;;;;;2.33;1.30;;;;;;;;;;5057424;28;20006;-72
2021/12/27 10:43:36;;;;;;;2.60;1.40;;;;;;;;;;5056525;28;20028;-73
2021/12/27 10:46:04;;;;;;;3.60;1.50;;;;;;;;;;5056776;28;20013;-72
2021/12/27 10:48:38;;;;;;;4.13;1.27;;;;;;;;;;5039997;28;20017;-72
2021/12/27 10:51:05;;;;;;;2.50;1.30;;;;;;;;;;5040352;28;20020;-72
2021/12/27 10:53:47;;;;;;;3.40;1.60;;;;;;;;;;5057539;28;20052;-72
2021/12/27 10:56:13;;;;;;;3.85;1.80;;;;;;;;;;5057212;28;20006;-72
2021/12/27 10:58:55;;;;;;;7.97;1.73;;;;;;;;;;5057403;28;20030;-72
2021/12/27 11:01:23;;;;;;;3.88;1.67;;;;;;;;;;5056513;28;20081;-72
2021/12/27 11:03:53;;;;;;;5.45;2.40;;;;;;;;;;5057051;28;20048;-72
2021/12/27 11:06:25;;;;;;;8.13;3.67;;;;;;;;;;5039997;28;20026;-72
2021/12/27 11:08:52;;;;;;;10.68;4.07;;;;;;;;;;5057081;28;20059;-72
2021/12/27 11:11:20;;;;;;;5.68;2.50;;;;;;;;;;5057074;28;20014;-72
2021/12/27 11:13:48;;;;;;;28.15;11.02;;;;;;;;;;5056864;28;20077;-73
2021/12/27 11:16:14;;;;;;;9.77;4.10;;;;;;;;;;5056147;28;20045;-72
2021/12/27 11:18:40;;;;;;;3.97;1.90;;;;;;;;;;5055565;28;20034;-72
2021/12/27 11:21:21;;;;;;;15.60;7.20;;;;;;;;;;5056784;28;20017;-72
2021/12/27 11:23:49;;;;;;;5.80;2.13;;;;;;;;;;5057121;28;20017;-72
2021/12/27 11:26:22;;;;;;;4.03;2.65;;;;;;;;;;5057048;28;20020;-72
2021/12/27 11:28:49;;;;;;;9.65;2.80;;;;;;;;;;5057140;28;20022;-72
2021/12/27 11:31:26;;;;;;;4.30;2.50;;;;;;;;;;5056989;28;20059;-72
2021/12/27 11:33:57;;;;;;;6.40;2.40;;;;;;;;;;5056943;28;20030;-72
2021/12/27 11:36:26;;;;;;;8.68;2.42;;;;;;;;;;5056719;28;20017;-73
2021/12/27 11:38:52;;;;;;;9.23;2.95;;;;;;;;;;5056156;28;20017;-72
2021/12/27 11:41:24;;;;;;;7.18;2.85;;;;;;;;;;5039481;28;20005;-72
2021/12/27 11:44:01;;;;;;;5.43;3.15;;;;;;;;;;5056777;28;20014;-73
2021/12/27 11:46:30;;;;;;;7.32;2.95;;;;;;;;;;5038816;28;20006;-72
2021/12/27 11:48:59;;;;;;;10.82;3.38;;;;;;;;;;5056617;28;20009;-73
2021/12/27 11:51:38;;;;;;;6.50;3.38;;;;;;;;;;5056263;28;20032;-72
2021/12/27 11:54:05;;;;;;;6.53;3.00;;;;;;;;;;5039655;28;20040;-72
2021/12/27 11:56:49;;;;;;;7.15;3.42;;;;;;;;;;5056357;28;20032;-72
2021/12/27 11:59:38;;;;;;;8.15;4.18;;;;;;;;;;5039180;28;20025;-72
2021/12/27 12:02:15;;;;;;;5.38;2.90;;;;;;;;;;5056634;28;20024;-72
2021/12/27 12:04:44;;;;;;;5.28;3.00;;;;;;;;;;5039464;28;20021;-73
2021/12/27 12:07:10;;;;;;;6.93;2.63;;;;;;;;;;5056740;28;20009;-73
2021/12/27 12:09:46;;;;;;;9.63;3.30;;;;;;;;;;5039593;28;20012;-73
2021/12/27 12:12:14;;;;;;;5.55;2.80;;;;;;;;;;5057164;28;20048;-73
2021/12/27 12:14:40;;;;;;;6.15;2.67;;;;;;;;;;5060029;28;20024;-73
2021/12/27 12:17:10;;;;;;;6.50;2.85;;;;;;;;;;5060421;28;20052;-73
2021/12/27 12:19:47;;;;;;;5.03;2.72;;;;;;;;;;5060042;28;20006;-73
2021/12/27 12:22:35;;;;;;;6.22;2.65;;;;;;;;;;5043036;28;20045;-72
2021/12/27 12:25:19;;;;;;;4.25;2.70;;;;;;;;;;5060015;28;20035;-73
2021/12/27 12:27:54;;;;;;;4.93;2.88;;;;;;;;;;5042752;28;20048;-73
2021/12/27 12:30:21;;;;;;;5.03;2.60;;;;;;;;;;5059281;28;20078;-72
2021/12/27 12:33:00;;;;;;;5.03;2.78;;;;;;;;;;5059450;28;20037;-73
2021/12/27 12:35:39;;;;;;;5.60;2.65;;;;;;;;;;5060027;28;20015;-73
2021/12/27 12:38:09;;;;;;;9.82;3.00;;;;;;;;;;5042470;28;20027;-72
2021/12/27 12:40:34;;;;;;;6.25;3.00;;;;;;;;;;5042389;28;20029;-73
2021/12/27 12:43:00;;;;;;;6.38;2.97;;;;;;;;;;5058777;28;20025;-73
2021/12/27 12:45:30;;;;;;;7.40;3.17;;;;;;;;;;5059202;28;20014;-72
2021/12/27 12:47:55;;;;;;;6.50;3.10;;;;;;;;;;5042110;28;20016;-72
2021/12/27 12:50:22;;;;;;;7.40;3.03;;;;;;;;;;5059706;28;20009;-73
2021/12/27 12:53:06;;;;;;;5.05;3.10;;;;;;;;;;5059384;28;20032;-73
2021/12/27 12:55:35;;;;;;;7.63;2.97;;;;;;;;;;5041532;28;20010;-73
2021/12/27 12:58:01;;;;;;;8.27;3.35;;;;;;;;;;5042065;28;20005;-72
2021/12/27 13:00:30;;;;;;;5.32;2.88;;;;;;;;;;5041956;28;20035;-73
2021/12/27 13:03:13;;;;;;;4.82;2.55;;;;;;;;;;5059603;28;20060;-73
2021/12/27 13:05:38;;;;;;;4.18;2.85;;;;;;;;;;5059650;28;20081;-72
2021/12/27 13:08:04;;;;;;;5.95;3.00;;;;;;;;;;5059303;28;20048;-72
2021/12/27 13:10:35;;;;;;;5.25;2.30;;;;;;;;;;5059249;28;20073;-72
2021/12/27 13:13:15;;;;;;;5.90;2.30;;;;;;;;;;5042073;28;20013;-73
2021/12/27 13:16:03;;;;;;;4.00;2.45;;;;;;;;;;5059208;28;20024;-73
2021/12/27 13:18:30;;;;;;;5.45;2.30;;;;;;;;;;5041710;28;20048;-72
2021/12/27 13:21:17;;;;;;;4.75;2.30;;;;;;;;;;5041912;28;20021;-72
2021/12/27 13:23:43;;;;;;;9.00;2.47;;;;;;;;;;5058229;28;20032;-72
2021/12/27 13:26:13;;;;;;;4.90;2.53;;;;;;;;;;5058858;28;20084;-72
2021/12/27 13:28:44;;;;;;;5.97;2.58;;;;;;;;;;5059065;28;20021;-72
2021/12/27 13:31:19;;;;;;;5.15;2.35;;;;;;;;;;5041757;28;20036;-72
2021/12/27 13:33:50;;;;;;;3.92;2.28;;;;;;;;;;5059017;28;20029;-72
2021/12/27 13:36:26;;;;;;;5.30;2.08;;;;;;;;;;5058720;28;20029;-71
2021/12/27 13:39:13;;;;;;;8.38;3.03;;;;;;;;;;5058653;28;20020;-71
2021/12/27 13:41:54;;;;;;;6.32;2.22;;;;;;;;;;5058799;28;20002;-72
2021/12/27 13:44:28;;;;;;;3.63;2.20;;;;;;;;;;5058699;28;20017;-72
2021/12/27 13:46:56;;;;;;;3.70;2.53;;;;;;;;;;5058799;28;20006;-72
2021/12/27 13:49:22;;;;;;;6.00;2.33;;;;;;;;;;5058584;28;20010;-71
2021/12/27 13:51:57;;;;;;;7.85;2.72;;;;;;;;;;5058725;28;20019;-72
2021/12/27 13:54:23;;;;;;;6.00;2.42;;;;;;;;;;5058578;28;20029;-72
2021/12/27 13:56:51;;;;;;;3.60;2.20;;;;;;;;;;5041256;28;20020;-71
2021/12/27 13:59:18;;;;;;;10.48;2.35;;;;;;;;;;5058170;28;20001;-72
2021/12/27 14:02:01;;;;;;;4.35;2.13;;;;;;;;;;5058276;28;20009;-72
2021/12/27 14:04:28;;;;;;;3.10;1.95;;;;;;;;;;5040589;28;20017;-72
2021/12/27 14:06:55;;;;;;;4.60;2.63;;;;;;;;;;5040130;28;20013;-71
2021/12/27 14:09:24;;;;;;;4.90;2.20;;;;;;;;;;5057951;28;20005;-72
2021/12/27 14:11:52;;;;;;;4.72;2.20;;;;;;;;;;5040621;28;20013;-71
2021/12/27 14:14:36;;;;;;;9.25;2.55;;;;;;;;;;5040826;28;20009;-72
2021/12/27 14:17:03;;;;;;;;;;;;;;;;;;5040909;28;20016;-71
2021/12/27 14:19:28;;;;;;;4.43;2.28;;;;;;;;;;5040723;28;19936;-72
2021/12/27 14:21:53;;;;;;;4.03;2.20;;;;;;;;;;5057967;28;20016;-72
2021/12/27 14:24:35;;;;;;;4.07;2.17;;;;;;;;;;5040317;28;20013;-72
2021/12/27 14:27:03;;;;;;;5.18;2.30;;;;;;;;;;5057678;28;20026;-71
2021/12/27 14:29:29;;;;;;;10.23;4.28;;;;;;;;;;5057528;28;20021;-72
2021/12/27 14:31:57;;;;;;;10.73;3.88;;;;;;;;;;5036884;28;20041;-71
2021/12/27 14:34:36;;;;;;;9.25;3.58;;;;;;;;;;5037836;28;20161;-72
2021/12/27 14:37:03;;;;;;;9.60;3.35;;;;;;;;;;5037706;28;20022;-71
2021/12/27 14:39:28;;;;;;;5.00;3.17;;;;;;;;;;5037892;28;20015;-72
2021/12/27 14:41:53;;;;;;;9.27;3.10;;;;;;;;;;5037811;28;20025;-71
2021/12/27 14:44:19;;;;;;;6.07;3.03;;;;;;;;;;5035743;28;20030;-71
2021/12/27 14:46:44;;;;;;;7.18;2.95;;;;;;;;;;5036589;28;20029;-72
2021/12/27 14:49:11;;;;;;;6.03;3.08;;;;;;;;;;5037226;28;20030;-72